Time;durP1;ratioP1;P1;durP2;ratioP2;P2;SDS_P1;SDS_P2;PMS_P1;PMS_P2;Temp;Humidity;BMP_temperature;BMP_pressure;BME280_temperature;BME280_humidity;BME280_pressure;Samples;Min_cycle;Max_cycle;Signal;HPM_P1;HPM_P2
2021/08/16 00:01:39;;;;;;;;;;;26.90;56.60;;;;;;1602791;73;1942;-61
2021/08/16 00:03:41;;;;;;;;;;;26.80;56.60;;;;;;1587838;73;1116;-61
2021/08/16 00:05:43;;;;;;;;;;;26.90;56.50;;;;;;1592830;73;709;-61
2021/08/16 00:07:45;;;;;;;;;;;26.90;56.50;;;;;;1595358;73;797;-61
2021/08/16 00:09:47;;;;;;;;;;;26.90;56.40;;;;;;1595158;73;790;-62
2021/08/16 00:11:49;;;;;;;;;;;26.80;56.50;;;;;;1591082;73;778;-61
2021/08/16 00:13:50;;;;;;;;;;;26.80;56.40;;;;;;1584973;73;1136;-61
2021/08/16 00:15:52;;;;;;;;;;;26.80;56.30;;;;;;1609176;73;684;-61
2021/08/16 00:17:54;;;;;;;;;;;26.80;56.30;;;;;;1601843;73;725;-61
2021/08/16 00:19:56;;;;;;;;;;;26.90;56.30;;;;;;1595701;73;593;-61
2021/08/16 00:21:58;;;;;;;;;;;26.90;56.20;;;;;;1598871;73;1940;-63
2021/08/16 00:24:00;;;;;;;;;;;26.90;56.10;;;;;;1592791;73;1166;-63
2021/08/16 00:26:02;;;;;;;;;;;26.80;56.10;;;;;;1585602;73;685;-63
2021/08/16 00:28:04;;;;;;;;;;;26.80;56.20;;;;;;1602217;73;708;-64
2021/08/16 00:30:07;;;;;;;;;;;26.90;56.20;;;;;;1605085;73;716;-63
2021/08/16 00:32:08;;;;;;;;;;;26.90;56.30;;;;;;1603691;73;703;-62
2021/08/16 00:34:10;;;;;;;;;;;26.90;56.30;;;;;;1598196;73;1077;-63
2021/08/16 00:36:12;;;;;;;;;;;26.90;56.40;;;;;;1583509;73;676;-63
2021/08/16 00:38:14;;;;;;;;;;;26.90;56.30;;;;;;1624808;73;1103;-63
2021/08/16 00:40:16;;;;;;;;;;;26.90;56.30;;;;;;1578300;73;2119;-56
2021/08/16 00:42:18;;;;;;;;;;;26.90;56.00;;;;;;1547760;76;1956;-56
2021/08/16 00:44:20;;;;;;;;;;;26.90;55.90;;;;;;1538252;76;1207;-56
2021/08/16 00:46:22;;;;;;;;;;;26.90;55.40;;;;;;1534703;77;764;-58
2021/08/16 00:48:24;;;;;;;;;;;26.90;55.20;;;;;;1535752;77;779;-59
2021/08/16 00:50:26;;;;;;;;;;;26.90;55.00;;;;;;1536873;77;757;-58
2021/08/16 00:52:28;;;;;;;;;;;26.90;54.90;;;;;;1535760;76;1217;-56
2021/08/16 00:54:30;;;;;;;;;;;26.80;54.70;;;;;;1537612;77;732;-58
2021/08/16 00:56:32;;;;;;;;;;;26.80;54.60;;;;;;1538089;77;871;-58
2021/08/16 00:58:34;;;;;;;;;;;26.80;54.40;;;;;;1536060;77;809;-57
2021/08/16 01:00:36;;;;;;;;;;;26.80;54.40;;;;;;1536958;77;825;-55
2021/08/16 01:02:39;;;;;;;;;;;26.80;54.30;;;;;;1531946;76;1947;-59
2021/08/16 01:04:41;;;;;;;;;;;26.90;54.20;;;;;;1530331;76;1775;-56
2021/08/16 01:06:43;;;;;;;;;;;26.80;54.20;;;;;;1534826;77;809;-56
2021/08/16 01:08:51;;;;;;;;;;;26.90;54.20;;;;;;1538214;77;744;-59
2021/08/16 01:10:53;;;;;;;;;;;26.80;54.30;;;;;;1531662;76;765;-55
2021/08/16 01:12:55;;;;;;;;;;;26.80;54.30;;;;;;1536435;77;1189;-58
2021/08/16 01:14:57;;;;;;;;;;;26.80;54.40;;;;;;1537121;77;942;-58
2021/08/16 01:16:59;;;;;;;;;;;26.80;54.40;;;;;;1534867;76;777;-58
2021/08/16 01:19:01;;;;;;;;;;;26.90;54.50;;;;;;1531812;77;725;-57
2021/08/16 01:21:06;;;;;;;;;;;26.70;54.60;;;;;;1537058;76;698;-58
2021/08/16 01:23:08;;;;;;;;;;;26.80;54.50;;;;;;1529933;76;1935;-55
2021/08/16 01:25:10;;;;;;;;;;;26.80;54.50;;;;;;1535916;77;717;-58
2021/08/16 01:27:12;;;;;;;;;;;26.70;54.60;;;;;;1535867;77;954;-58
2021/08/16 01:29:24;;;;;;;;;;;26.80;54.50;;;;;;1535854;77;783;-57
2021/08/16 01:31:25;;;;;;;;;;;26.80;54.40;;;;;;1535881;77;775;-57
2021/08/16 01:33:28;;;;;;;;;;;26.80;54.40;;;;;;1535946;76;1159;-58
2021/08/16 01:35:30;;;;;;;;;;;26.80;54.40;;;;;;1538170;76;718;-59
2021/08/16 01:37:32;;;;;;;;;;;26.80;54.30;;;;;;1537021;77;755;-58
2021/08/16 01:39:34;;;;;;;;;;;26.70;54.30;;;;;;1536059;77;663;-56
2021/08/16 01:41:36;;;;;;;;;;;26.80;54.30;;;;;;1538039;76;793;-54
2021/08/16 01:43:38;;;;;;;;;;;26.70;54.30;;;;;;1533377;77;1118;-55
2021/08/16 01:45:39;;;;;;;;;;;26.70;54.30;;;;;;1536677;77;802;-57
2021/08/16 01:47:41;;;;;;;;;;;26.70;54.40;;;;;;1535592;77;695;-58
2021/08/16 01:49:43;;;;;;;;;;;26.70;54.30;;;;;;1533313;76;787;-59
2021/08/16 01:51:47;;;;;;;;;;;26.80;54.20;;;;;;1536621;76;743;-54
2021/08/16 01:53:49;;;;;;;;;;;26.70;54.20;;;;;;1534620;77;1123;-58
2021/08/16 01:55:51;;;;;;;;;;;26.80;54.20;;;;;;1535805;77;769;-57
2021/08/16 01:57:52;;;;;;;;;;;26.80;54.30;;;;;;1538617;76;782;-55
2021/08/16 01:59:54;;;;;;;;;;;26.70;54.30;;;;;;1537410;76;604;-59
2021/08/16 02:01:56;;;;;;;;;;;26.70;54.30;;;;;;1533596;77;1934;-58
2021/08/16 02:03:58;;;;;;;;;;;26.70;54.20;;;;;;1536366;77;1115;-59
2021/08/16 02:06:00;;;;;;;;;;;26.70;54.20;;;;;;1537051;77;895;-57
2021/08/16 02:08:02;;;;;;;;;;;26.70;54.20;;;;;;1531249;76;696;-58
2021/08/16 02:10:04;;;;;;;;;;;26.70;54.20;;;;;;1534867;77;824;-58
2021/08/16 02:12:06;;;;;;;;;;;26.70;54.10;;;;;;1536546;77;735;-58
2021/08/16 02:14:08;;;;;;;;;;;26.70;54.00;;;;;;1537662;77;1113;-58
2021/08/16 02:16:10;;;;;;;;;;;26.70;54.00;;;;;;1536513;77;635;-57
2021/08/16 02:18:12;;;;;;;;;;;26.70;53.90;;;;;;1537939;76;723;-57
2021/08/16 02:20:14;;;;;;;;;;;26.70;53.90;;;;;;1536567;77;743;-57
2021/08/16 02:22:16;;;;;;;;;;;26.70;53.90;;;;;;1533864;77;1943;-56
2021/08/16 02:24:18;;;;;;;;;;;26.70;53.90;;;;;;1536396;77;1127;-59
2021/08/16 02:26:20;;;;;;;;;;;26.70;54.00;;;;;;1536643;76;789;-60
2021/08/16 02:28:22;;;;;;;;;;;26.70;54.10;;;;;;1531443;76;729;-60
2021/08/16 02:30:24;;;;;;;;;;;26.70;54.10;;;;;;1536198;77;795;-58
2021/08/16 02:32:26;;;;;;;;;;;26.70;54.00;;;;;;1537906;77;1131;-58
2021/08/16 02:34:28;;;;;;;;;;;26.70;54.00;;;;;;1536751;77;757;-58
2021/08/16 02:36:29;;;;;;;;;;;26.70;53.90;;;;;;1533974;76;738;-57
2021/08/16 02:38:31;;;;;;;;;;;26.70;54.00;;;;;;1534011;76;770;-56
2021/08/16 02:40:33;;;;;;;;;;;26.70;54.00;;;;;;1536699;77;792;-54
2021/08/16 02:42:35;;;;;;;;;;;26.70;54.00;;;;;;1537535;77;1931;-57
2021/08/16 02:44:37;;;;;;;;;;;26.70;54.10;;;;;;1536443;77;788;-58
2021/08/16 02:46:39;;;;;;;;;;;26.70;54.10;;;;;;1537144;76;810;-59
2021/08/16 02:48:41;;;;;;;;;;;26.70;54.20;;;;;;1537859;77;905;-59
2021/08/16 02:50:43;;;;;;;;;;;26.70;54.30;;;;;;1536976;77;716;-57
2021/08/16 02:52:45;;;;;;;;;;;26.70;54.40;;;;;;1537356;77;1110;-56
2021/08/16 02:54:46;;;;;;;;;;;26.70;54.50;;;;;;1536413;76;783;-56
2021/08/16 02:56:48;;;;;;;;;;;26.70;54.40;;;;;;1534099;76;737;-55
2021/08/16 02:58:50;;;;;;;;;;;26.70;54.40;;;;;;1533428;77;727;-55
2021/08/16 03:00:52;;;;;;;;;;;26.70;54.40;;;;;;1535641;77;763;-57
2021/08/16 03:02:54;;;;;;;;;;;26.70;54.20;;;;;;1534814;77;1941;-57
2021/08/16 03:04:56;;;;;;;;;;;26.70;54.20;;;;;;1536906;76;756;-58
2021/08/16 03:06:58;;;;;;;;;;;26.70;54.20;;;;;;1536703;77;807;-57
2021/08/16 03:08:59;;;;;;;;;;;26.70;54.20;;;;;;1529716;77;705;-59
2021/08/16 03:11:02;;;;;;;;;;;26.70;54.30;;;;;;1530340;77;797;-57
2021/08/16 03:13:04;;;;;;;;;;;26.70;54.40;;;;;;1528993;76;1146;-58
2021/08/16 03:15:07;;;;;;;;;;;26.70;54.50;;;;;;1528718;76;775;-58
2021/08/16 03:17:09;;;;;;;;;;;26.70;54.60;;;;;;1533566;76;744;-57
2021/08/16 03:19:11;;;;;;;;;;;26.70;54.50;;;;;;1528249;76;726;-59
2021/08/16 03:21:13;;;;;;;;;;;26.70;54.40;;;;;;1538313;77;735;-58
2021/08/16 03:23:14;;;;;;;;;;;26.70;54.40;;;;;;1528151;77;1953;-58
2021/08/16 03:25:16;;;;;;;;;;;26.70;54.40;;;;;;1513209;76;738;-55
2021/08/16 03:27:18;;;;;;;;;;;26.70;54.40;;;;;;1524938;77;790;-55
2021/08/16 03:29:20;;;;;;;;;;;26.70;54.40;;;;;;1523013;77;771;-55
2021/08/16 03:31:22;;;;;;;;;;;26.70;54.40;;;;;;1536653;77;796;-59
2021/08/16 03:33:24;;;;;;;;;;;26.70;54.40;;;;;;1517489;76;1142;-59
2021/08/16 03:35:26;;;;;;;;;;;26.70;54.30;;;;;;1536161;77;795;-58
2021/08/16 03:37:32;;;;;;;;;;;26.70;54.30;;;;;;1526211;77;749;-57
2021/08/16 03:39:31;;;;;;;;;;;26.70;54.40;;;;;;1534662;76;1663;-55
2021/08/16 03:41:33;;;;;;;;;;;26.70;54.40;;;;;;1532080;77;652;-56
2021/08/16 03:43:35;;;;;;;;;;;26.70;54.40;;;;;;1525417;76;1960;-58
2021/08/16 03:45:37;;;;;;;;;;;26.70;54.40;;;;;;1533701;77;734;-60
2021/08/16 03:47:39;;;;;;;;;;;26.70;54.40;;;;;;1537252;77;790;-58
2021/08/16 03:49:40;;;;;;;;;;;26.70;54.40;;;;;;1538062;77;809;-58
2021/08/16 03:51:42;;;;;;;;;;;26.70;54.40;;;;;;1529318;76;784;-60
2021/08/16 03:53:44;;;;;;;;;;;26.70;54.50;;;;;;1527825;76;1138;-58
2021/08/16 03:55:46;;;;;;;;;;;26.70;54.60;;;;;;1523999;77;766;-57
2021/08/16 03:57:48;;;;;;;;;;;26.70;54.60;;;;;;1528962;77;734;-56
2021/08/16 03:59:50;;;;;;;;;;;26.70;54.60;;;;;;1539705;77;793;-58
2021/08/16 04:01:52;;;;;;;;;;;26.70;54.60;;;;;;1527871;76;819;-58
2021/08/16 04:03:54;;;;;;;;;;;26.70;54.70;;;;;;1532185;77;1949;-58
2021/08/16 04:05:56;;;;;;;;;;;26.70;54.70;;;;;;1528551;77;840;-55
2021/08/16 04:07:58;;;;;;;;;;;26.70;54.70;;;;;;1527612;77;788;-58
2021/08/16 04:09:59;;;;;;;;;;;26.70;54.70;;;;;;1526610;77;808;-59
2021/08/16 04:12:01;;;;;;;;;;;26.70;54.70;;;;;;1535987;76;800;-57
2021/08/16 04:14:03;;;;;;;;;;;26.70;54.50;;;;;;1524120;77;1143;-55
2021/08/16 04:16:05;;;;;;;;;;;26.70;54.40;;;;;;1521697;77;740;-59
2021/08/16 04:18:07;;;;;;;;;;;26.80;54.40;;;;;;1523272;77;803;-59
2021/08/16 04:20:09;;;;;;;;;;;26.70;54.40;;;;;;1536904;76;876;-57
2021/08/16 04:22:11;;;;;;;;;;;26.70;54.40;;;;;;1513727;77;716;-59
2021/08/16 04:24:13;;;;;;;;;;;26.70;54.60;;;;;;1534843;77;1959;-59
2021/08/16 04:26:15;;;;;;;;;;;26.70;54.60;;;;;;1517552;77;709;-55
2021/08/16 04:28:17;;;;;;;;;;;26.70;54.60;;;;;;1522925;76;790;-57
2021/08/16 04:30:19;;;;;;;;;;;26.70;54.60;;;;;;1514714;76;732;-56
2021/08/16 04:32:21;;;;;;;;;;;26.70;54.70;;;;;;1516146;77;745;-56
2021/08/16 04:34:23;;;;;;;;;;;26.70;54.70;;;;;;1531967;77;744;-56
2021/08/16 04:36:25;;;;;;;;;;;26.80;54.70;;;;;;1524191;77;800;-56
2021/08/16 04:38:26;;;;;;;;;;;26.70;54.80;;;;;;1521805;77;773;-54
2021/08/16 04:40:28;;;;;;;;;;;26.70;54.70;;;;;;1526761;76;755;-59
2021/08/16 04:42:30;;;;;;;;;;;26.70;54.70;;;;;;1524554;77;1150;-57
2021/08/16 04:44:32;;;;;;;;;;;26.70;54.50;;;;;;1530467;77;1939;-57
2021/08/16 04:46:34;;;;;;;;;;;26.70;54.50;;;;;;1535087;77;804;-58
2021/08/16 04:48:36;;;;;;;;;;;26.70;54.50;;;;;;1531718;76;775;-59
2021/08/16 04:50:38;;;;;;;;;;;26.70;54.40;;;;;;1524815;77;1015;-58
2021/08/16 04:52:40;;;;;;;;;;;26.70;54.50;;;;;;1536338;77;1114;-56
2021/08/16 04:54:42;;;;;;;;;;;26.70;54.50;;;;;;1532534;77;789;-56
2021/08/16 04:56:44;;;;;;;;;;;26.70;54.40;;;;;;1526933;76;766;-59
2021/08/16 04:58:46;;;;;;;;;;;26.70;54.30;;;;;;1527679;77;717;-58
2021/08/16 05:00:47;;;;;;;;;;;26.70;54.00;;;;;;1530766;77;726;-59
2021/08/16 05:02:49;;;;;;;;;;;26.80;53.90;;;;;;1529062;76;1142;-59
2021/08/16 05:04:57;;;;;;;;;;;26.70;53.60;;;;;;1535404;77;1943;-58
2021/08/16 05:06:58;;;;;;;;;;;26.70;53.40;;;;;;1520252;76;1689;-59
2021/08/16 05:09:00;;;;;;;;;;;26.70;53.40;;;;;;1526825;77;769;-59
2021/08/16 05:11:04;;;;;;;;;;;26.70;53.40;;;;;;1525188;77;788;-57
2021/08/16 05:13:06;;;;;;;;;;;26.60;53.20;;;;;;1523110;77;1802;-55
2021/08/16 05:15:08;;;;;;;;;;;26.70;53.20;;;;;;1528949;77;758;-56
2021/08/16 05:17:10;;;;;;;;;;;26.70;53.30;;;;;;1520082;76;753;-57
2021/08/16 05:19:12;;;;;;;;;;;26.60;53.30;;;;;;1522601;77;610;-58
2021/08/16 05:21:14;;;;;;;;;;;26.60;53.40;;;;;;1538711;76;708;-57
2021/08/16 05:23:18;;;;;;;;;;;26.70;53.40;;;;;;1522095;77;1964;-56
2021/08/16 05:25:20;;;;;;;;;;;26.60;53.40;;;;;;1531180;76;1399;-58
2021/08/16 05:27:22;;;;;;;;;;;26.70;53.30;;;;;;1532784;76;655;-57
2021/08/16 05:29:24;;;;;;;;;;;26.70;53.20;;;;;;1523784;77;742;-56
2021/08/16 05:31:26;;;;;;;;;;;26.60;53.10;;;;;;1528824;77;792;-57
2021/08/16 05:33:28;;;;;;;;;;;26.50;53.20;;;;;;1533595;77;1144;-59
2021/08/16 05:35:30;;;;;;;;;;;26.60;53.20;;;;;;1536797;76;747;-57
2021/08/16 05:37:31;;;;;;;;;;;26.60;53.10;;;;;;1524473;77;817;-60
2021/08/16 05:39:33;;;;;;;;;;;26.70;53.30;;;;;;1525549;77;768;-58
2021/08/16 05:41:35;;;;;;;;;;;26.70;53.40;;;;;;1528059;77;753;-59
2021/08/16 05:43:37;;;;;;;;;;;26.60;53.40;;;;;;1526171;76;1955;-58
2021/08/16 05:45:39;;;;;;;;;;;26.60;53.40;;;;;;1530222;76;831;-54
2021/08/16 05:47:41;;;;;;;;;;;26.60;53.40;;;;;;1537553;77;796;-55
2021/08/16 05:49:43;;;;;;;;;;;26.60;53.20;;;;;;1525360;77;709;-59
2021/08/16 05:51:45;;;;;;;;;;;26.70;53.20;;;;;;1533322;77;767;-59
2021/08/16 05:53:46;;;;;;;;;;;26.60;53.30;;;;;;1534639;76;1155;-60
2021/08/16 05:55:48;;;;;;;;;;;26.60;53.30;;;;;;1528661;77;780;-57
2021/08/16 05:57:50;;;;;;;;;;;26.60;53.10;;;;;;1531551;77;811;-56
2021/08/16 05:59:52;;;;;;;;;;;26.60;53.10;;;;;;1536012;77;798;-57
2021/08/16 06:01:54;;;;;;;;;;;26.70;52.90;;;;;;1535884;76;805;-56
2021/08/16 06:03:56;;;;;;;;;;;26.60;53.00;;;;;;1533111;76;1930;-54
2021/08/16 06:05:58;;;;;;;;;;;26.70;53.00;;;;;;1536723;77;821;-61
2021/08/16 06:08:00;;;;;;;;;;;26.60;53.00;;;;;;1536818;77;900;-59
2021/08/16 06:10:01;;;;;;;;;;;26.60;52.90;;;;;;1535238;77;824;-60
2021/08/16 06:12:04;;;;;;;;;;;26.60;53.00;;;;;;1535216;76;812;-58
2021/08/16 06:14:05;;;;;;;;;;;26.60;52.90;;;;;;1534354;76;1075;-58
2021/08/16 06:16:07;;;;;;;;;;;26.60;53.10;;;;;;1533894;77;741;-58
2021/08/16 06:18:09;;;;;;;;;;;26.60;53.10;;;;;;1530155;76;678;-58
2021/08/16 06:20:12;;;;;;;;;;;26.60;53.10;;;;;;1531241;77;726;-56
2021/08/16 06:22:14;;;;;;;;;;;26.70;53.30;;;;;;1529016;76;927;-58
2021/08/16 06:24:16;;;;;;;;;;;26.60;53.40;;;;;;1530801;77;1953;-57
2021/08/16 06:26:18;;;;;;;;;;;26.60;53.50;;;;;;1532791;77;787;-55
2021/08/16 06:28:20;;;;;;;;;;;26.70;53.50;;;;;;1538233;77;777;-57
2021/08/16 06:30:22;;;;;;;;;;;26.70;53.60;;;;;;1536583;77;810;-56
2021/08/16 06:32:23;;;;;;;;;;;26.60;53.50;;;;;;1532528;76;1124;-60
2021/08/16 06:34:25;;;;;;;;;;;26.70;53.40;;;;;;1536261;77;744;-57
2021/08/16 06:36:27;;;;;;;;;;;26.60;53.40;;;;;;1535341;76;748;-58
2021/08/16 06:38:29;;;;;;;;;;;26.60;53.60;;;;;;1534121;77;780;-58
2021/08/16 06:40:31;;;;;;;;;;;26.70;53.60;;;;;;1538145;73;219026;-70
2021/08/16 06:42:33;;;;;;;;;;;26.60;53.70;;;;;;1557638;75;672;-69
2021/08/16 06:44:35;;;;;;;;;;;26.70;54.00;;;;;;1561748;74;1937;-69
2021/08/16 06:46:38;;;;;;;;;;;26.70;54.20;;;;;;1540212;74;705;-70
2021/08/16 06:48:40;;;;;;;;;;;26.70;54.20;;;;;;1558723;73;769;-69
2021/08/16 06:50:42;;;;;;;;;;;26.60;54.30;;;;;;1536878;75;1181;-69
2021/08/16 06:52:44;;;;;;;;;;;26.70;54.40;;;;;;1525030;76;824;-65
2021/08/16 06:54:45;;;;;;;;;;;26.80;54.40;;;;;;1544373;75;792;-65
2021/08/16 06:56:47;;;;;;;;;;;26.80;53.80;;;;;;1569360;73;828;-64
2021/08/16 06:58:49;;;;;;;;;;;26.70;53.50;;;;;;1545109;74;725;-65
2021/08/16 07:00:51;;;;;;;;;;;26.70;53.40;;;;;;1544135;74;1136;-66
2021/08/16 07:02:53;;;;;;;;;;;26.70;53.30;;;;;;1533923;75;775;-63
2021/08/16 07:04:55;;;;;;;;;;;26.70;53.30;;;;;;1546895;75;1958;-65
2021/08/16 07:06:57;;;;;;;;;;;26.70;53.30;;;;;;1564999;75;842;-63
2021/08/16 07:08:59;;;;;;;;;;;26.70;53.30;;;;;;1555771;74;801;-64
2021/08/16 07:11:00;;;;;;;;;;;26.70;53.30;;;;;;1569827;75;1198;-63
2021/08/16 07:13:02;;;;;;;;;;;26.60;53.30;;;;;;1589054;73;800;-63
2021/08/16 07:15:05;;;;;;;;;;;26.70;53.20;;;;;;1559386;75;957;-65
2021/08/16 07:17:06;;;;;;;;;;;26.60;53.30;;;;;;1555350;74;785;-63
2021/08/16 07:19:08;;;;;;;;;;;26.60;53.30;;;;;;1555688;75;816;-63
2021/08/16 07:21:10;;;;;;;;;;;26.70;53.20;;;;;;1562584;75;1155;-63
2021/08/16 07:23:12;;;;;;;;;;;26.60;53.40;;;;;;1555876;74;717;-64
2021/08/16 07:25:14;;;;;;;;;;;26.60;53.40;;;;;;1536377;75;1924;-63
2021/08/16 07:27:16;;;;;;;;;;;26.60;53.40;;;;;;1536794;74;792;-63
2021/08/16 07:29:18;;;;;;;;;;;26.60;53.60;;;;;;1585645;74;723;-62
2021/08/16 07:31:20;;;;;;;;;;;26.60;53.60;;;;;;1580480;74;1116;-64
2021/08/16 07:33:21;;;;;;;;;;;26.60;54.00;;;;;;1588099;74;739;-65
2021/08/16 07:35:23;;;;;;;;;;;26.60;53.90;;;;;;1566331;73;793;-66
2021/08/16 07:37:25;;;;;;;;;;;26.60;53.90;;;;;;1565642;73;760;-63
2021/08/16 07:39:29;;;;;;;;;;;26.50;54.00;;;;;;1562487;74;723;-64
2021/08/16 07:41:31;;;;;;;;;;;26.60;54.00;;;;;;1574600;74;1770;-62
2021/08/16 07:43:32;;;;;;;;;;;26.60;54.00;;;;;;1571056;74;744;-64
2021/08/16 07:45:34;;;;;;;;;;;26.50;54.00;;;;;;1565052;74;1938;-65
2021/08/16 07:47:36;;;;;;;;;;;26.60;54.00;;;;;;1567168;74;811;-65
2021/08/16 07:49:38;;;;;;;;;;;26.50;54.10;;;;;;1577631;73;816;-63
2021/08/16 07:51:40;;;;;;;;;;;26.60;54.20;;;;;;1582333;73;1117;-60
2021/08/16 07:53:45;;;;;;;;;;;26.70;54.20;;;;;;1571020;73;730;-60
2021/08/16 07:55:47;;;;;;;;;;;26.60;54.20;;;;;;1567718;74;810;-60
2021/08/16 07:57:49;;;;;;;;;;;26.60;54.20;;;;;;1575773;74;804;-61
2021/08/16 07:59:51;;;;;;;;;;;26.60;54.20;;;;;;1581156;73;810;-60
2021/08/16 08:01:53;;;;;;;;;;;26.60;54.20;;;;;;1562948;74;1078;-60
2021/08/16 08:03:55;;;;;;;;;;;26.50;54.20;;;;;;1566148;74;718;-60
2021/08/16 08:05:57;;;;;;;;;;;26.50;54.20;;;;;;1560714;75;1887;-60
2021/08/16 08:08:00;;;;;;;;;;;26.60;54.20;;;;;;1558882;74;683;-62
2021/08/16 08:10:02;;;;;;;;;;;26.50;54.20;;;;;;1563436;75;826;-60
2021/08/16 08:12:04;;;;;;;;;;;26.50;54.20;;;;;;1558429;75;1113;-60
2021/08/16 08:14:06;;;;;;;;;;;26.50;54.20;;;;;;1578929;74;736;-60
2021/08/16 08:16:08;;;;;;;;;;;26.50;54.20;;;;;;1557652;74;737;-62
2021/08/16 08:18:10;;;;;;;;;;;26.50;54.20;;;;;;1538130;76;765;-60
2021/08/16 08:20:13;;;;;;;;;;;26.40;54.20;;;;;;1582822;73;1132;-60
2021/08/16 08:22:16;;;;;;;;;;;26.50;54.20;;;;;;1555792;75;819;-62
2021/08/16 08:24:18;;;;;;;;;;;26.50;54.20;;;;;;1572452;74;1925;-62
2021/08/16 08:26:20;;;;;;;;;;;26.40;54.20;;;;;;1572259;74;790;-62
2021/08/16 08:28:22;;;;;;;;;;;26.50;54.30;;;;;;1550637;75;671;-60
2021/08/16 08:30:23;;;;;;;;;;;26.40;54.20;;;;;;1548351;74;1117;-60
2021/08/16 08:32:25;;;;;;;;;;;26.40;54.30;;;;;;1554086;74;731;-63
2021/08/16 08:34:27;;;;;;;;;;;26.40;54.30;;;;;;1558902;74;747;-62
2021/08/16 08:36:29;;;;;;;;;;;26.50;54.40;;;;;;1562500;75;699;-62
2021/08/16 08:38:31;;;;;;;;;;;26.40;54.40;;;;;;1560400;75;643;-60
2021/08/16 08:40:33;;;;;;;;;;;26.50;54.40;;;;;;1585664;73;1130;-63
2021/08/16 08:42:36;;;;;;;;;;;26.50;54.40;;;;;;1584808;73;794;-61
2021/08/16 08:44:38;;;;;;;;;;;26.40;54.50;;;;;;1578473;73;1893;-62
2021/08/16 08:46:41;;;;;;;;;;;26.40;54.50;;;;;;1576015;74;832;-63
2021/08/16 08:48:42;;;;;;;;;;;26.40;54.60;;;;;;1588785;74;753;-61
2021/08/16 08:50:46;;;;;;;;;;;26.40;54.60;;;;;;1586130;73;1153;-61
2021/08/16 08:52:49;;;;;;;;;;;26.40;54.70;;;;;;1570246;73;738;-63
2021/08/16 08:54:52;;;;;;;;;;;26.40;54.80;;;;;;1579581;73;782;-62
2021/08/16 08:56:56;;;;;;;;;;;26.40;54.70;;;;;;1585209;74;1697;-67
2021/08/16 08:58:58;;;;;;;;;;;26.40;54.90;;;;;;1584396;73;777;-65
2021/08/16 09:01:00;;;;;;;;;;;26.40;54.90;;;;;;1585516;74;1139;-62
2021/08/16 09:03:02;;;;;;;;;;;26.40;54.90;;;;;;1586449;73;644;-67
2021/08/16 09:05:04;;;;;;;;;;;26.40;54.70;;;;;;1583687;74;1977;-60
2021/08/16 09:07:06;;;;;;;;;;;26.40;54.70;;;;;;1584360;74;665;-62
2021/08/16 09:09:08;;;;;;;;;;;26.40;54.70;;;;;;1580914;73;756;-61
2021/08/16 09:11:11;;;;;;;;;;;26.30;54.70;;;;;;1570071;74;1176;-68
2021/08/16 09:13:15;;;;;;;;;;;26.30;54.70;;;;;;1592923;74;781;-59
2021/08/16 09:15:21;;;;;;;;;;;26.30;54.80;;;;;;1577083;73;1844;-70
2021/08/16 09:17:30;;;;;;;;;;;26.30;54.80;;;;;;1585022;73;709;-61
2021/08/16 09:19:32;;;;;;;;;;;26.30;54.90;;;;;;1572328;74;1819;-60
2021/08/16 09:21:37;;;;;;;;;;;26.20;54.90;;;;;;1592040;73;1156;-62
2021/08/16 09:23:48;;;;;;;;;;;26.30;55.00;;;;;;1581576;73;1595;-60
2021/08/16 09:25:53;;;;;;;;;;;26.20;55.10;;;;;;1586290;73;1899;-62
2021/08/16 09:27:55;;;;;;;;;;;26.30;55.30;;;;;;1577656;73;1842;-61
2021/08/16 09:29:56;;;;;;;;;;;26.20;55.40;;;;;;1568825;73;760;-61
2021/08/16 09:32:03;;;;;;;;;;;26.30;55.50;;;;;;1566216;73;1108;-59
2021/08/16 09:34:06;;;;;;;;;;;26.30;55.70;;;;;;1575198;74;706;-62
2021/08/16 09:36:08;;;;;;;;;;;26.20;55.90;;;;;;1582590;74;815;-61
2021/08/16 09:38:10;;;;;;;;;;;26.20;56.00;;;;;;1577852;73;635;-62
2021/08/16 09:40:14;;;;;;;;;;;26.20;56.20;;;;;;1585384;73;1163;-61
2021/08/16 09:42:16;;;;;;;;;;;26.20;56.40;;;;;;1581436;74;1628;-60
2021/08/16 09:44:18;;;;;;;;;;;26.20;56.40;;;;;;1580017;73;703;-60
2021/08/16 09:46:19;;;;;;;;;;;26.20;56.60;;;;;;1579766;74;1974;-61
2021/08/16 09:48:23;;;;;;;;;;;26.30;56.60;;;;;;1583334;73;701;-63
2021/08/16 09:50:26;;;;;;;;;;;26.20;56.60;;;;;;1589064;74;1129;-62
2021/08/16 09:52:29;;;;;;;;;;;26.20;56.50;;;;;;1566421;73;1694;-62
2021/08/16 09:54:32;;;;;;;;;;;26.20;56.70;;;;;;1583030;73;858;-61
2021/08/16 09:56:34;;;;;;;;;;;26.20;56.80;;;;;;1580343;73;719;-61
2021/08/16 09:58:36;;;;;;;;;;;26.20;56.80;;;;;;1581977;74;732;-62
2021/08/16 10:00:38;;;;;;;;;;;26.20;56.80;;;;;;1575847;73;1148;-63
2021/08/16 10:02:39;;;;;;;;;;;26.20;56.50;;;;;;1583178;74;882;-61
2021/08/16 10:04:41;;;;;;;;;;;26.20;56.30;;;;;;1580943;73;1929;-61
2021/08/16 10:06:43;;;;;;;;;;;26.20;56.00;;;;;;1580890;73;748;-63
2021/08/16 10:08:55;;;;;;;;;;;26.20;55.80;;;;;;1580346;74;728;-63
2021/08/16 10:10:57;;;;;;;;;;;26.20;55.70;;;;;;1573080;73;1098;-60
2021/08/16 10:12:59;;;;;;;;;;;26.20;55.70;;;;;;1578778;74;776;-61
2021/08/16 10:15:01;;;;;;;;;;;26.20;55.60;;;;;;1581179;73;802;-63
2021/08/16 10:17:03;;;;;;;;;;;26.20;55.50;;;;;;1584311;74;758;-63
2021/08/16 10:19:06;;;;;;;;;;;26.20;55.50;;;;;;1585774;73;729;-63
2021/08/16 10:21:08;;;;;;;;;;;26.20;55.50;;;;;;1600347;73;1173;-63
2021/08/16 10:23:17;;;;;;;;;;;26.20;55.50;;;;;;1576655;74;582;-63
2021/08/16 10:25:19;;;;;;;;;;;26.20;55.50;;;;;;1574055;74;1939;-63
2021/08/16 10:27:23;;;;;;;;;;;26.10;55.50;;;;;;1581090;74;768;-63
2021/08/16 10:29:25;;;;;;;;;;;26.20;55.40;;;;;;1560201;74;1852;-61
2021/08/16 10:31:27;;;;;;;;;;;26.20;55.40;;;;;;1577815;74;1144;-61
2021/08/16 10:33:29;;;;;;;;;;;26.20;55.30;;;;;;1554090;74;782;-61
2021/08/16 10:35:38;;;;;;;;;;;26.10;55.20;;;;;;1575966;74;728;-61
2021/08/16 10:37:41;;;;;;;;;;;26.10;55.20;;;;;;1573271;74;822;-62
2021/08/16 10:39:47;;;;;;;;;;;26.10;55.20;;;;;;1591067;73;897;-63
2021/08/16 10:41:49;;;;;;;;;;;26.20;55.20;;;;;;1582351;73;1126;-61
2021/08/16 10:43:50;;;;;;;;;;;26.10;55.20;;;;;;1568910;73;787;-61
2021/08/16 10:45:53;;;;;;;;;;;26.10;55.20;;;;;;1584174;74;1946;-61
2021/08/16 10:48:03;;;;;;;;;;;26.10;55.20;;;;;;1583513;73;866;-61
2021/08/16 10:50:09;;;;;;;;;;;26.10;55.20;;;;;;1585011;73;1775;-61
2021/08/16 10:52:20;;;;;;;;;;;26.10;55.10;;;;;;1578839;73;697;-61
2021/08/16 10:54:22;;;;;;;;;;;26.20;55.20;;;;;;1579510;73;1620;-61
2021/08/16 10:56:25;;;;;;;;;;;26.10;55.20;;;;;;1570580;73;798;-61
2021/08/16 10:58:26;;;;;;;;;;;26.10;55.20;;;;;;1578911;73;695;-61
2021/08/16 11:00:28;;;;;;;;;;;26.10;55.20;;;;;;1572056;73;1175;-61
2021/08/16 11:02:31;;;;;;;;;;;26.10;55.20;;;;;;1570346;75;831;-61
2021/08/16 11:04:33;;;;;;;;;;;26.10;55.10;;;;;;1574431;74;752;-61
2021/08/16 11:06:36;;;;;;;;;;;26.10;55.00;;;;;;1578618;73;1913;-63
2021/08/16 11:08:38;;;;;;;;;;;26.10;55.00;;;;;;1584666;73;799;-63
2021/08/16 11:10:41;;;;;;;;;;;26.20;55.00;;;;;;1582832;74;1145;-61
2021/08/16 11:12:43;;;;;;;;;;;26.20;54.90;;;;;;1572016;73;848;-61
2021/08/16 11:14:48;;;;;;;;;;;26.20;54.80;;;;;;1584647;74;739;-63
2021/08/16 11:16:48;;;;;;;;;;;26.00;54.80;;;;;;1577006;73;1498;-62
2021/08/16 11:18:55;;;;;;;;;;;26.00;54.70;;;;;;1589741;74;791;-64
2021/08/16 11:21:00;;;;;;;;;;;26.10;54.80;;;;;;1572512;74;1175;-61
2021/08/16 11:23:02;;;;;;;;;;;26.10;54.70;;;;;;1571385;73;789;-61
2021/08/16 11:25:05;;;;;;;;;;;26.10;54.70;;;;;;1599982;73;742;-61
2021/08/16 11:27:08;;;;;;;;;;;26.10;54.70;;;;;;1593803;73;1883;-61
2021/08/16 11:29:09;;;;;;;;;;;26.10;54.70;;;;;;1586496;74;796;-61
2021/08/16 11:31:11;;;;;;;;;;;26.10;54.70;;;;;;1584351;73;1179;-61
2021/08/16 11:33:15;;;;;;;;;;;26.00;54.70;;;;;;1578213;73;633;-61
2021/08/16 11:35:17;;;;;;;;;;;26.10;54.70;;;;;;1576992;73;1885;-60
2021/08/16 11:37:19;;;;;;;;;;;26.00;54.70;;;;;;1590072;74;754;-61
2021/08/16 11:39:34;;;;;;;;;;;26.00;54.70;;;;;;1588140;73;777;-62
2021/08/16 11:41:36;;;;;;;;;;;26.10;54.70;;;;;;1572349;73;1152;-60
2021/08/16 11:43:38;;;;;;;;;;;26.00;54.70;;;;;;1573649;73;794;-61
2021/08/16 11:45:40;;;;;;;;;;;26.10;54.70;;;;;;1586780;73;1940;-63
2021/08/16 11:47:48;;;;;;;;;;;26.00;54.70;;;;;;1583762;73;791;-61
2021/08/16 11:49:46;;;;;;;;;;;26.00;54.70;;;;;;1584302;73;1632;-63
2021/08/16 11:51:48;;;;;;;;;;;26.00;54.70;;;;;;1584270;74;1073;-61
2021/08/16 11:53:50;;;;;;;;;;;26.10;54.70;;;;;;1585291;74;661;-61
2021/08/16 11:55:53;;;;;;;;;;;26.00;54.80;;;;;;1583176;73;807;-63
2021/08/16 11:57:55;;;;;;;;;;;26.00;54.70;;;;;;1580235;73;1003;-61
2021/08/16 11:59:57;;;;;;;;;;;26.00;54.70;;;;;;1564207;73;764;-63
2021/08/16 12:02:04;;;;;;;;;;;26.00;54.70;;;;;;1583159;74;1104;-61
2021/08/16 12:04:06;;;;;;;;;;;26.00;54.70;;;;;;1583091;73;749;-61
2021/08/16 12:06:11;;;;;;;;;;;26.10;54.70;;;;;;1579610;73;1933;-63
2021/08/16 12:08:13;;;;;;;;;;;26.00;54.70;;;;;;1580739;73;736;-61
2021/08/16 12:10:16;;;;;;;;;;;26.10;54.70;;;;;;1575979;73;1155;-62